sensor_id;sensor_type;location;lat;lon;timestamp;P1;durP1;ratioP1;P2;durP2;ratioP2
52266;SDS011;38223;50.940;4.034;2023-02-27T00:00:59;3.70;;;1.42;;
52266;SDS011;38223;50.940;4.034;2023-02-27T00:03:31;2.72;;;1.40;;
52266;SDS011;38223;50.940;4.034;2023-02-27T00:06:07;2.60;;;0.98;;
52266;SDS011;38223;50.940;4.034;2023-02-27T00:08:37;6.58;;;1.40;;
52266;SDS011;38223;50.940;4.034;2023-02-27T00:11:11;5.62;;;1.32;;
52266;SDS011;38223;50.940;4.034;2023-02-27T00:13:42;3.85;;;1.12;;
52266;SDS011;38223;50.940;4.034;2023-02-27T00:16:13;6.00;;;1.25;;
52266;SDS011;38223;50.940;4.034;2023-02-27T00:18:45;4.30;;;1.00;;
52266;SDS011;38223;50.940;4.034;2023-02-27T00:21:19;4.25;;;1.30;;
52266;SDS011;38223;50.940;4.034;2023-02-27T00:23:49;2.47;;;0.90;;
52266;SDS011;38223;50.940;4.034;2023-02-27T00:26:18;5.05;;;1.20;;
52266;SDS011;38223;50.940;4.034;2023-02-27T00:28:48;3.12;;;1.00;;
52266;SDS011;38223;50.940;4.034;2023-02-27T00:31:20;6.60;;;1.25;;
52266;SDS011;38223;50.940;4.034;2023-02-27T00:33:52;3.83;;;1.05;;
52266;SDS011;38223;50.940;4.034;2023-02-27T00:36:24;3.50;;;1.40;;
52266;SDS011;38223;50.940;4.034;2023-02-27T00:38:53;2.60;;;1.07;;
52266;SDS011;38223;50.940;4.034;2023-02-27T00:41:30;3.45;;;1.17;;
52266;SDS011;38223;50.940;4.034;2023-02-27T00:44:03;3.42;;;1.05;;
52266;SDS011;38223;50.940;4.034;2023-02-27T00:46:31;4.58;;;1.00;;
52266;SDS011;38223;50.940;4.034;2023-02-27T00:49:03;2.67;;;1.20;;
52266;SDS011;38223;50.940;4.034;2023-02-27T00:51:35;2.87;;;0.90;;
52266;SDS011;38223;50.940;4.034;2023-02-27T00:54:06;3.08;;;1.02;;
52266;SDS011;38223;50.940;4.034;2023-02-27T00:59:05;4.45;;;1.40;;
52266;SDS011;38223;50.940;4.034;2023-02-27T01:01:37;3.22;;;1.30;;
52266;SDS011;38223;50.940;4.034;2023-02-27T01:04:07;9.43;;;1.15;;
52266;SDS011;38223;50.940;4.034;2023-02-27T01:06:56;3.70;;;0.78;;
52266;SDS011;38223;50.940;4.034;2023-02-27T01:09:25;4.33;;;0.88;;
52266;SDS011;38223;50.940;4.034;2023-02-27T01:11:57;3.67;;;1.17;;
52266;SDS011;38223;50.940;4.034;2023-02-27T01:14:28;2.37;;;0.90;;
52266;SDS011;38223;50.940;4.034;2023-02-27T01:17:01;6.80;;;1.30;;
52266;SDS011;38223;50.940;4.034;2023-02-27T01:19:31;4.58;;;1.20;;
52266;SDS011;38223;50.940;4.034;2023-02-27T01:22:02;3.87;;;1.12;;
52266;SDS011;38223;50.940;4.034;2023-02-27T01:24:33;4.12;;;1.02;;
52266;SDS011;38223;50.940;4.034;2023-02-27T01:27:03;2.77;;;0.90;;
52266;SDS011;38223;50.940;4.034;2023-02-27T01:29:36;1.95;;;0.80;;
52266;SDS011;38223;50.940;4.034;2023-02-27T01:32:10;5.22;;;1.20;;
52266;SDS011;38223;50.940;4.034;2023-02-27T01:34:40;2.42;;;1.07;;
52266;SDS011;38223;50.940;4.034;2023-02-27T01:37:09;4.62;;;1.05;;
52266;SDS011;38223;50.940;4.034;2023-02-27T01:39:42;2.33;;;1.30;;
52266;SDS011;38223;50.940;4.034;2023-02-27T01:42:17;2.15;;;0.88;;
52266;SDS011;38223;50.940;4.034;2023-02-27T01:47:48;3.30;;;1.10;;
52266;SDS011;38223;50.940;4.034;2023-02-27T01:50:21;2.17;;;0.85;;
52266;SDS011;38223;50.940;4.034;2023-02-27T01:52:55;2.37;;;0.80;;
52266;SDS011;38223;50.940;4.034;2023-02-27T01:55:29;2.72;;;0.90;;
52266;SDS011;38223;50.940;4.034;2023-02-27T01:57:59;2.62;;;1.00;;
52266;SDS011;38223;50.940;4.034;2023-02-27T02:00:33;3.40;;;1.07;;
52266;SDS011;38223;50.940;4.034;2023-02-27T02:06:15;7.03;;;0.93;;
52266;SDS011;38223;50.940;4.034;2023-02-27T02:08:46;5.50;;;1.25;;
52266;SDS011;38223;50.940;4.034;2023-02-27T02:11:20;5.83;;;1.15;;
52266;SDS011;38223;50.940;4.034;2023-02-27T02:13:55;3.75;;;0.90;;
52266;SDS011;38223;50.940;4.034;2023-02-27T02:16:38;3.22;;;1.20;;
52266;SDS011;38223;50.940;4.034;2023-02-27T02:22:22;5.10;;;1.37;;
52266;SDS011;38223;50.940;4.034;2023-02-27T02:36:54;4.08;;;1.52;;
52266;SDS011;38223;50.940;4.034;2023-02-27T02:39:48;3.72;;;1.10;;
52266;SDS011;38223;50.940;4.034;2023-02-27T02:42:24;3.80;;;1.20;;
52266;SDS011;38223;50.940;4.034;2023-02-27T02:48:07;3.87;;;1.25;;
52266;SDS011;38223;50.940;4.034;2023-02-27T02:50:38;3.65;;;1.22;;
52266;SDS011;38223;50.940;4.034;2023-02-27T03:01:52;5.40;;;1.20;;
52266;SDS011;38223;50.940;4.034;2023-02-27T03:04:25;4.17;;;0.95;;
52266;SDS011;38223;50.940;4.034;2023-02-27T03:07:19;3.08;;;1.12;;
52266;SDS011;38223;50.940;4.034;2023-02-27T03:09:40;2.75;;;1.20;;
52266;SDS011;38223;50.940;4.034;2023-02-27T03:12:16;4.37;;;1.40;;
52266;SDS011;38223;50.940;4.034;2023-02-27T03:14:55;5.20;;;1.32;;
52266;SDS011;38223;50.940;4.034;2023-02-27T03:17:36;7.97;;;1.17;;
52266;SDS011;38223;50.940;4.034;2023-02-27T03:20:09;3.42;;;1.10;;
52266;SDS011;38223;50.940;4.034;2023-02-27T03:22:58;3.85;;;1.77;;
52266;SDS011;38223;50.940;4.034;2023-02-27T03:25:30;3.72;;;1.37;;
52266;SDS011;38223;50.940;4.034;2023-02-27T03:28:10;2.65;;;1.05;;
52266;SDS011;38223;50.940;4.034;2023-02-27T03:30:44;2.80;;;1.20;;
52266;SDS011;38223;50.940;4.034;2023-02-27T03:33:33;2.87;;;1.15;;
52266;SDS011;38223;50.940;4.034;2023-02-27T03:38:51;4.58;;;1.35;;
52266;SDS011;38223;50.940;4.034;2023-02-27T03:46:57;5.42;;;1.50;;
52266;SDS011;38223;50.940;4.034;2023-02-27T03:49:32;4.15;;;1.40;;
52266;SDS011;38223;50.940;4.034;2023-02-27T03:52:04;3.20;;;1.22;;
52266;SDS011;38223;50.940;4.034;2023-02-27T03:54:39;4.12;;;1.12;;
52266;SDS011;38223;50.940;4.034;2023-02-27T03:57:08;4.78;;;1.45;;
52266;SDS011;38223;50.940;4.034;2023-02-27T03:59:37;4.73;;;1.50;;
52266;SDS011;38223;50.940;4.034;2023-02-27T04:02:05;3.90;;;1.70;;
52266;SDS011;38223;50.940;4.034;2023-02-27T04:04:37;3.20;;;1.60;;
52266;SDS011;38223;50.940;4.034;2023-02-27T04:07:13;2.98;;;1.30;;
52266;SDS011;38223;50.940;4.034;2023-02-27T04:21:18;4.10;;;1.30;;
52266;SDS011;38223;50.940;4.034;2023-02-27T04:23:53;3.80;;;1.50;;
52266;SDS011;38223;50.940;4.034;2023-02-27T04:26:48;3.37;;;1.40;;
52266;SDS011;38223;50.940;4.034;2023-02-27T04:29:18;6.75;;;1.60;;
52266;SDS011;38223;50.940;4.034;2023-02-27T04:32:00;3.20;;;1.75;;
52266;SDS011;38223;50.940;4.034;2023-02-27T04:34:49;3.67;;;1.50;;
52266;SDS011;38223;50.940;4.034;2023-02-27T04:40:38;6.75;;;1.40;;
52266;SDS011;38223;50.940;4.034;2023-02-27T04:43:05;6.17;;;1.80;;
52266;SDS011;38223;50.940;4.034;2023-02-27T04:45:38;3.08;;;1.70;;
52266;SDS011;38223;50.940;4.034;2023-02-27T04:48:27;4.50;;;1.77;;
52266;SDS011;38223;50.940;4.034;2023-02-27T04:51:04;5.92;;;1.95;;
52266;SDS011;38223;50.940;4.034;2023-02-27T04:53:44;8.13;;;1.80;;
52266;SDS011;38223;50.940;4.034;2023-02-27T04:56:41;4.37;;;1.90;;
52266;SDS011;38223;50.940;4.034;2023-02-27T04:59:15;4.50;;;1.80;;
52266;SDS011;38223;50.940;4.034;2023-02-27T05:01:46;3.85;;;1.95;;
52266;SDS011;38223;50.940;4.034;2023-02-27T05:04:17;4.05;;;2.05;;
52266;SDS011;38223;50.940;4.034;2023-02-27T05:06:49;4.70;;;1.77;;
52266;SDS011;38223;50.940;4.034;2023-02-27T05:09:25;5.60;;;2.05;;
52266;SDS011;38223;50.940;4.034;2023-02-27T05:12:00;8.30;;;1.87;;
52266;SDS011;38223;50.940;4.034;2023-02-27T05:14:58;6.12;;;2.10;;
52266;SDS011;38223;50.940;4.034;2023-02-27T05:17:56;3.65;;;1.70;;
52266;SDS011;38223;50.940;4.034;2023-02-27T05:26:17;5.83;;;2.08;;
52266;SDS011;38223;50.940;4.034;2023-02-27T05:28:57;11.35;;;1.90;;
52266;SDS011;38223;50.940;4.034;2023-02-27T05:31:27;5.35;;;1.70;;
52266;SDS011;38223;50.940;4.034;2023-02-27T05:34:19;8.33;;;1.82;;
52266;SDS011;38223;50.940;4.034;2023-02-27T05:39:28;5.58;;;2.12;;
52266;SDS011;38223;50.940;4.034;2023-02-27T05:42:08;8.18;;;2.08;;
52266;SDS011;38223;50.940;4.034;2023-02-27T05:44:38;7.87;;;2.33;;
52266;SDS011;38223;50.940;4.034;2023-02-27T05:47:10;5.87;;;2.30;;
52266;SDS011;38223;50.940;4.034;2023-02-27T05:49:49;4.53;;;2.15;;
52266;SDS011;38223;50.940;4.034;2023-02-27T05:52:24;5.60;;;2.33;;
52266;SDS011;38223;50.940;4.034;2023-02-27T05:55:05;7.40;;;2.25;;
52266;SDS011;38223;50.940;4.034;2023-02-27T05:57:38;5.40;;;2.50;;
52266;SDS011;38223;50.940;4.034;2023-02-27T06:02:50;10.00;;;2.80;;
52266;SDS011;38223;50.940;4.034;2023-02-27T06:05:25;4.62;;;2.00;;
52266;SDS011;38223;50.940;4.034;2023-02-27T06:07:55;4.67;;;1.98;;
52266;SDS011;38223;50.940;4.034;2023-02-27T06:10:23;5.15;;;2.02;;
52266;SDS011;38223;50.940;4.034;2023-02-27T06:12:50;8.18;;;2.50;;
52266;SDS011;38223;50.940;4.034;2023-02-27T06:15:18;6.17;;;2.20;;
52266;SDS011;38223;50.940;4.034;2023-02-27T06:17:47;7.75;;;3.02;;
52266;SDS011;38223;50.940;4.034;2023-02-27T06:20:36;7.62;;;2.40;;
52266;SDS011;38223;50.940;4.034;2023-02-27T06:23:04;4.62;;;2.20;;
52266;SDS011;38223;50.940;4.034;2023-02-27T06:25:32;7.75;;;2.27;;
52266;SDS011;38223;50.940;4.034;2023-02-27T06:28:02;4.22;;;2.35;;
52266;SDS011;38223;50.940;4.034;2023-02-27T06:30:37;11.50;;;2.65;;
52266;SDS011;38223;50.940;4.034;2023-02-27T06:33:07;6.87;;;2.75;;
52266;SDS011;38223;50.940;4.034;2023-02-27T06:35:38;5.80;;;2.30;;
52266;SDS011;38223;50.940;4.034;2023-02-27T06:38:09;7.20;;;2.52;;
52266;SDS011;38223;50.940;4.034;2023-02-27T06:40:45;5.42;;;2.67;;
52266;SDS011;38223;50.940;4.034;2023-02-27T06:43:14;7.05;;;2.30;;
52266;SDS011;38223;50.940;4.034;2023-02-27T06:45:42;5.08;;;2.70;;
52266;SDS011;38223;50.940;4.034;2023-02-27T06:48:14;4.45;;;2.72;;
52266;SDS011;38223;50.940;4.034;2023-02-27T06:50:42;8.23;;;2.95;;
52266;SDS011;38223;50.940;4.034;2023-02-27T06:53:17;3.67;;;2.40;;
52266;SDS011;38223;50.940;4.034;2023-02-27T06:55:46;7.37;;;2.77;;
52266;SDS011;38223;50.940;4.034;2023-02-27T06:58:20;7.03;;;3.00;;
52266;SDS011;38223;50.940;4.034;2023-02-27T07:00:49;5.65;;;2.55;;
52266;SDS011;38223;50.940;4.034;2023-02-27T07:03:21;8.03;;;3.05;;
52266;SDS011;38223;50.940;4.034;2023-02-27T07:05:51;5.95;;;3.05;;
52266;SDS011;38223;50.940;4.034;2023-02-27T07:08:21;4.60;;;2.63;;
52266;SDS011;38223;50.940;4.034;2023-02-27T07:10:52;6.72;;;3.08;;
52266;SDS011;38223;50.940;4.034;2023-02-27T07:13:20;18.80;;;4.15;;
52266;SDS011;38223;50.940;4.034;2023-02-27T07:15:51;6.55;;;3.12;;
52266;SDS011;38223;50.940;4.034;2023-02-27T07:18:21;5.60;;;3.02;;
52266;SDS011;38223;50.940;4.034;2023-02-27T07:20:52;6.85;;;3.58;;
52266;SDS011;38223;50.940;4.034;2023-02-27T07:23:22;6.42;;;3.22;;
52266;SDS011;38223;50.940;4.034;2023-02-27T07:25:53;9.93;;;3.17;;
52266;SDS011;38223;50.940;4.034;2023-02-27T07:28:25;9.98;;;3.60;;
52266;SDS011;38223;50.940;4.034;2023-02-27T07:30:54;8.00;;;3.50;;
52266;SDS011;38223;50.940;4.034;2023-02-27T07:33:25;7.53;;;3.27;;
52266;SDS011;38223;50.940;4.034;2023-02-27T07:35:58;6.67;;;3.05;;
52266;SDS011;38223;50.940;4.034;2023-02-27T07:38:28;8.77;;;3.70;;
52266;SDS011;38223;50.940;4.034;2023-02-27T07:40:57;11.95;;;3.67;;
52266;SDS011;38223;50.940;4.034;2023-02-27T07:43:27;5.40;;;3.62;;
52266;SDS011;38223;50.940;4.034;2023-02-27T07:45:56;4.12;;;2.87;;
52266;SDS011;38223;50.940;4.034;2023-02-27T07:48:27;7.75;;;3.40;;
52266;SDS011;38223;50.940;4.034;2023-02-27T07:50:59;6.72;;;3.55;;
52266;SDS011;38223;50.940;4.034;2023-02-27T07:53:30;10.25;;;3.22;;
52266;SDS011;38223;50.940;4.034;2023-02-27T07:55:58;4.42;;;3.17;;
52266;SDS011;38223;50.940;4.034;2023-02-27T07:58:29;7.35;;;3.92;;
52266;SDS011;38223;50.940;4.034;2023-02-27T08:00:57;5.15;;;3.05;;
52266;SDS011;38223;50.940;4.034;2023-02-27T08:03:31;5.33;;;3.30;;
52266;SDS011;38223;50.940;4.034;2023-02-27T08:06:04;6.53;;;3.77;;
52266;SDS011;38223;50.940;4.034;2023-02-27T08:08:34;4.72;;;3.15;;
52266;SDS011;38223;50.940;4.034;2023-02-27T08:11:06;5.90;;;2.87;;
52266;SDS011;38223;50.940;4.034;2023-02-27T08:13:38;5.17;;;3.22;;
52266;SDS011;38223;50.940;4.034;2023-02-27T08:16:11;7.90;;;3.37;;
52266;SDS011;38223;50.940;4.034;2023-02-27T08:18:42;6.55;;;3.60;;
52266;SDS011;38223;50.940;4.034;2023-02-27T08:21:16;7.00;;;3.37;;
52266;SDS011;38223;50.940;4.034;2023-02-27T08:23:46;4.87;;;3.50;;
52266;SDS011;38223;50.940;4.034;2023-02-27T08:26:19;5.30;;;3.40;;
52266;SDS011;38223;50.940;4.034;2023-02-27T08:28:59;9.70;;;3.05;;
52266;SDS011;38223;50.940;4.034;2023-02-27T08:31:28;8.30;;;3.25;;
52266;SDS011;38223;50.940;4.034;2023-02-27T08:34:01;4.83;;;3.40;;
52266;SDS011;38223;50.940;4.034;2023-02-27T08:36:32;6.70;;;2.90;;
52266;SDS011;38223;50.940;4.034;2023-02-27T08:39:00;5.95;;;3.08;;
52266;SDS011;38223;50.940;4.034;2023-02-27T08:41:32;7.70;;;3.22;;
52266;SDS011;38223;50.940;4.034;2023-02-27T08:44:04;4.45;;;2.90;;
52266;SDS011;38223;50.940;4.034;2023-02-27T08:46:35;4.72;;;2.80;;
52266;SDS011;38223;50.940;4.034;2023-02-27T08:49:06;7.00;;;3.17;;
52266;SDS011;38223;50.940;4.034;2023-02-27T08:51:41;5.83;;;3.12;;
52266;SDS011;38223;50.940;4.034;2023-02-27T08:54:13;7.28;;;3.37;;
52266;SDS011;38223;50.940;4.034;2023-02-27T08:56:43;5.62;;;3.22;;
52266;SDS011;38223;50.940;4.034;2023-02-27T08:59:14;4.03;;;3.02;;
52266;SDS011;38223;50.940;4.034;2023-02-27T09:01:43;6.60;;;3.00;;
52266;SDS011;38223;50.940;4.034;2023-02-27T09:04:17;5.37;;;3.58;;
52266;SDS011;38223;50.940;4.034;2023-02-27T09:06:47;5.25;;;3.12;;
52266;SDS011;38223;50.940;4.034;2023-02-27T09:09:19;5.10;;;3.37;;
52266;SDS011;38223;50.940;4.034;2023-02-27T09:11:50;4.35;;;3.10;;
52266;SDS011;38223;50.940;4.034;2023-02-27T09:14:19;5.50;;;3.30;;
52266;SDS011;38223;50.940;4.034;2023-02-27T09:16:51;7.60;;;3.10;;
52266;SDS011;38223;50.940;4.034;2023-02-27T09:19:22;5.45;;;3.05;;
52266;SDS011;38223;50.940;4.034;2023-02-27T09:21:52;8.15;;;3.17;;
52266;SDS011;38223;50.940;4.034;2023-02-27T09:24:22;4.12;;;3.22;;
52266;SDS011;38223;50.940;4.034;2023-02-27T09:26:54;10.20;;;2.75;;
52266;SDS011;38223;50.940;4.034;2023-02-27T09:29:23;4.73;;;2.77;;
52266;SDS011;38223;50.940;4.034;2023-02-27T09:31:52;5.80;;;3.00;;
52266;SDS011;38223;50.940;4.034;2023-02-27T09:34:20;6.75;;;3.20;;
52266;SDS011;38223;50.940;4.034;2023-02-27T09:36:48;6.05;;;3.35;;
52266;SDS011;38223;50.940;4.034;2023-02-27T09:39:19;6.95;;;3.05;;
52266;SDS011;38223;50.940;4.034;2023-02-27T09:41:52;8.60;;;2.50;;
52266;SDS011;38223;50.940;4.034;2023-02-27T09:47:03;3.80;;;2.40;;
52266;SDS011;38223;50.940;4.034;2023-02-27T09:49:45;4.03;;;1.90;;
52266;SDS011;38223;50.940;4.034;2023-02-27T09:52:25;8.20;;;2.37;;
52266;SDS011;38223;50.940;4.034;2023-02-27T09:54:56;5.37;;;2.10;;
52266;SDS011;38223;50.940;4.034;2023-02-27T10:00:31;3.85;;;2.47;;
52266;SDS011;38223;50.940;4.034;2023-02-27T10:06:07;6.92;;;1.67;;
52266;SDS011;38223;50.940;4.034;2023-02-27T10:11:30;6.72;;;1.60;;
52266;SDS011;38223;50.940;4.034;2023-02-27T10:13:58;5.87;;;1.50;;
52266;SDS011;38223;50.940;4.034;2023-02-27T10:16:37;3.65;;;1.57;;
52266;SDS011;38223;50.940;4.034;2023-02-27T10:19:16;3.85;;;1.87;;
52266;SDS011;38223;50.940;4.034;2023-02-27T10:21:49;4.45;;;1.50;;
52266;SDS011;38223;50.940;4.034;2023-02-27T10:24:27;4.62;;;1.67;;
52266;SDS011;38223;50.940;4.034;2023-02-27T10:27:00;6.53;;;1.65;;
52266;SDS011;38223;50.940;4.034;2023-02-27T10:29:52;2.58;;;1.15;;
52266;SDS011;38223;50.940;4.034;2023-02-27T10:32:27;4.75;;;1.42;;
52266;SDS011;38223;50.940;4.034;2023-02-27T10:35:20;2.30;;;1.10;;
52266;SDS011;38223;50.940;4.034;2023-02-27T10:38:02;3.75;;;1.52;;
52266;SDS011;38223;50.940;4.034;2023-02-27T10:40:28;3.85;;;1.25;;
52266;SDS011;38223;50.940;4.034;2023-02-27T10:43:01;2.95;;;1.25;;
52266;SDS011;38223;50.940;4.034;2023-02-27T10:45:38;2.55;;;1.57;;
52266;SDS011;38223;50.940;4.034;2023-02-27T10:48:15;5.78;;;1.50;;
52266;SDS011;38223;50.940;4.034;2023-02-27T10:50:48;2.50;;;1.22;;
52266;SDS011;38223;50.940;4.034;2023-02-27T10:53:19;4.37;;;1.45;;
52266;SDS011;38223;50.940;4.034;2023-02-27T10:56:00;2.10;;;1.20;;
52266;SDS011;38223;50.940;4.034;2023-02-27T10:58:28;5.72;;;1.05;;
52266;SDS011;38223;50.940;4.034;2023-02-27T11:01:06;4.62;;;1.62;;
52266;SDS011;38223;50.940;4.034;2023-02-27T11:03:41;3.87;;;1.62;;
52266;SDS011;38223;50.940;4.034;2023-02-27T11:06:24;4.05;;;1.60;;
52266;SDS011;38223;50.940;4.034;2023-02-27T11:11:55;3.42;;;1.40;;
52266;SDS011;38223;50.940;4.034;2023-02-27T11:14:49;5.17;;;1.40;;
52266;SDS011;38223;50.940;4.034;2023-02-27T11:17:25;3.85;;;1.22;;
52266;SDS011;38223;50.940;4.034;2023-02-27T11:19:58;2.75;;;1.50;;
52266;SDS011;38223;50.940;4.034;2023-02-27T11:22:31;2.42;;;1.37;;
52266;SDS011;38223;50.940;4.034;2023-02-27T11:25:24;3.05;;;1.57;;
52266;SDS011;38223;50.940;4.034;2023-02-27T11:27:36;7.62;;;1.40;;
52266;SDS011;38223;50.940;4.034;2023-02-27T11:32:57;2.67;;;1.20;;
52266;SDS011;38223;50.940;4.034;2023-02-27T11:35:30;2.10;;;1.10;;
52266;SDS011;38223;50.940;4.034;2023-02-27T11:38:03;4.65;;;0.70;;
52266;SDS011;38223;50.940;4.034;2023-02-27T11:40:48;2.90;;;1.32;;
52266;SDS011;38223;50.940;4.034;2023-02-27T11:43:32;1.87;;;1.30;;
52266;SDS011;38223;50.940;4.034;2023-02-27T11:46:08;4.75;;;1.10;;
52266;SDS011;38223;50.940;4.034;2023-02-27T11:48:45;2.92;;;1.12;;
52266;SDS011;38223;50.940;4.034;2023-02-27T11:51:22;3.45;;;1.22;;
52266;SDS011;38223;50.940;4.034;2023-02-27T11:56:29;2.70;;;1.17;;
52266;SDS011;38223;50.940;4.034;2023-02-27T11:59:04;3.72;;;1.10;;
52266;SDS011;38223;50.940;4.034;2023-02-27T12:07:11;2.35;;;1.20;;
52266;SDS011;38223;50.940;4.034;2023-02-27T12:09:54;1.62;;;0.85;;
52266;SDS011;38223;50.940;4.034;2023-02-27T12:15:23;4.35;;;1.55;;
52266;SDS011;38223;50.940;4.034;2023-02-27T12:17:58;2.50;;;1.00;;
52266;SDS011;38223;50.940;4.034;2023-02-27T12:20:31;2.40;;;1.02;;
52266;SDS011;38223;50.940;4.034;2023-02-27T12:23:12;3.08;;;1.02;;
52266;SDS011;38223;50.940;4.034;2023-02-27T12:25:50;3.00;;;1.25;;
52266;SDS011;38223;50.940;4.034;2023-02-27T12:28:22;2.98;;;1.15;;
52266;SDS011;38223;50.940;4.034;2023-02-27T12:31:00;2.22;;;1.10;;
52266;SDS011;38223;50.940;4.034;2023-02-27T12:36:12;1.77;;;0.82;;
52266;SDS011;38223;50.940;4.034;2023-02-27T12:38:44;1.70;;;1.07;;
52266;SDS011;38223;50.940;4.034;2023-02-27T12:46:56;2.50;;;1.10;;
52266;SDS011;38223;50.940;4.034;2023-02-27T12:52:24;1.98;;;1.05;;
52266;SDS011;38223;50.940;4.034;2023-02-27T13:01:01;7.95;;;0.93;;
52266;SDS011;38223;50.940;4.034;2023-02-27T13:08:58;5.58;;;1.65;;
52266;SDS011;38223;50.940;4.034;2023-02-27T13:11:40;1.52;;;0.80;;
52266;SDS011;38223;50.940;4.034;2023-02-27T13:19:44;2.37;;;0.88;;
52266;SDS011;38223;50.940;4.034;2023-02-27T13:22:28;1.75;;;1.37;;
52266;SDS011;38223;50.940;4.034;2023-02-27T13:24:58;2.52;;;0.80;;
52266;SDS011;38223;50.940;4.034;2023-02-27T13:27:32;3.80;;;1.20;;
52266;SDS011;38223;50.940;4.034;2023-02-27T13:30:09;2.72;;;1.00;;
52266;SDS011;38223;50.940;4.034;2023-02-27T13:35:52;3.77;;;1.25;;
52266;SDS011;38223;50.940;4.034;2023-02-27T13:38:47;4.60;;;1.22;;
52266;SDS011;38223;50.940;4.034;2023-02-27T13:43:56;3.35;;;0.80;;
52266;SDS011;38223;50.940;4.034;2023-02-27T13:46:27;2.58;;;1.00;;
52266;SDS011;38223;50.940;4.034;2023-02-27T13:51:43;3.15;;;1.02;;
52266;SDS011;38223;50.940;4.034;2023-02-27T13:59:36;5.30;;;1.10;;
52266;SDS011;38223;50.940;4.034;2023-02-27T14:04:58;1.70;;;0.80;;
52266;SDS011;38223;50.940;4.034;2023-02-27T14:07:30;2.87;;;1.12;;
52266;SDS011;38223;50.940;4.034;2023-02-27T14:10:03;3.45;;;1.05;;
52266;SDS011;38223;50.940;4.034;2023-02-27T14:12:40;1.85;;;1.10;;
52266;SDS011;38223;50.940;4.034;2023-02-27T14:18:06;2.40;;;0.98;;
52266;SDS011;38223;50.940;4.034;2023-02-27T14:23:28;1.90;;;1.15;;
52266;SDS011;38223;50.940;4.034;2023-02-27T14:25:57;2.55;;;0.80;;
52266;SDS011;38223;50.940;4.034;2023-02-27T14:28:50;2.95;;;0.80;;
52266;SDS011;38223;50.940;4.034;2023-02-27T14:31:23;2.30;;;1.12;;
52266;SDS011;38223;50.940;4.034;2023-02-27T14:33:56;5.65;;;1.47;;
52266;SDS011;38223;50.940;4.034;2023-02-27T14:36:27;2.35;;;1.15;;
52266;SDS011;38223;50.940;4.034;2023-02-27T14:39:02;1.98;;;1.10;;
52266;SDS011;38223;50.940;4.034;2023-02-27T14:41:48;4.35;;;1.32;;
52266;SDS011;38223;50.940;4.034;2023-02-27T14:44:40;2.60;;;1.30;;
52266;SDS011;38223;50.940;4.034;2023-02-27T14:47:17;1.90;;;0.80;;
52266;SDS011;38223;50.940;4.034;2023-02-27T14:50:05;3.45;;;1.12;;
52266;SDS011;38223;50.940;4.034;2023-02-27T14:52:41;6.55;;;0.93;;
52266;SDS011;38223;50.940;4.034;2023-02-27T14:55:14;5.12;;;1.00;;
52266;SDS011;38223;50.940;4.034;2023-02-27T15:00:48;5.83;;;1.27;;
52266;SDS011;38223;50.940;4.034;2023-02-27T15:03:40;3.02;;;0.80;;
52266;SDS011;38223;50.940;4.034;2023-02-27T15:06:18;5.08;;;1.20;;
52266;SDS011;38223;50.940;4.034;2023-02-27T15:08:53;2.60;;;1.32;;
52266;SDS011;38223;50.940;4.034;2023-02-27T15:11:22;2.00;;;1.05;;
52266;SDS011;38223;50.940;4.034;2023-02-27T15:14:02;3.95;;;1.20;;
52266;SDS011;38223;50.940;4.034;2023-02-27T15:16:31;2.65;;;0.93;;
52266;SDS011;38223;50.940;4.034;2023-02-27T15:19:16;3.30;;;1.10;;
52266;SDS011;38223;50.940;4.034;2023-02-27T15:21:58;1.15;;;0.90;;
52266;SDS011;38223;50.940;4.034;2023-02-27T15:24:33;3.65;;;1.10;;
52266;SDS011;38223;50.940;4.034;2023-02-27T15:27:06;3.27;;;0.88;;
52266;SDS011;38223;50.940;4.034;2023-02-27T15:29:39;3.70;;;1.35;;
52266;SDS011;38223;50.940;4.034;2023-02-27T15:34:56;5.87;;;1.20;;
52266;SDS011;38223;50.940;4.034;2023-02-27T15:37:30;3.15;;;1.42;;
52266;SDS011;38223;50.940;4.034;2023-02-27T15:40:03;2.25;;;1.20;;
52266;SDS011;38223;50.940;4.034;2023-02-27T15:42:34;2.67;;;1.27;;
52266;SDS011;38223;50.940;4.034;2023-02-27T15:45:04;1.87;;;1.40;;
52266;SDS011;38223;50.940;4.034;2023-02-27T15:47:37;2.95;;;1.00;;
52266;SDS011;38223;50.940;4.034;2023-02-27T15:55:56;2.10;;;1.12;;
52266;SDS011;38223;50.940;4.034;2023-02-27T15:58:30;2.55;;;1.10;;
52266;SDS011;38223;50.940;4.034;2023-02-27T16:01:04;2.58;;;1.72;;
52266;SDS011;38223;50.940;4.034;2023-02-27T16:03:37;3.30;;;1.20;;
52266;SDS011;38223;50.940;4.034;2023-02-27T16:06:14;2.05;;;1.20;;
52266;SDS011;38223;50.940;4.034;2023-02-27T16:08:53;4.20;;;1.35;;
52266;SDS011;38223;50.940;4.034;2023-02-27T16:11:34;3.62;;;1.30;;
52266;SDS011;38223;50.940;4.034;2023-02-27T16:14:32;1.77;;;1.27;;
52266;SDS011;38223;50.940;4.034;2023-02-27T16:16:54;1.98;;;1.27;;
52266;SDS011;38223;50.940;4.034;2023-02-27T16:19:29;2.65;;;1.40;;
52266;SDS011;38223;50.940;4.034;2023-02-27T16:22:03;1.92;;;1.50;;
52266;SDS011;38223;50.940;4.034;2023-02-27T16:25:10;4.37;;;1.45;;
52266;SDS011;38223;50.940;4.034;2023-02-27T16:27:42;2.62;;;1.42;;
52266;SDS011;38223;50.940;4.034;2023-02-27T16:30:14;3.22;;;1.40;;
52266;SDS011;38223;50.940;4.034;2023-02-27T16:32:48;3.15;;;1.70;;
52266;SDS011;38223;50.940;4.034;2023-02-27T16:35:19;3.85;;;1.72;;
52266;SDS011;38223;50.940;4.034;2023-02-27T16:37:50;2.35;;;1.52;;
52266;SDS011;38223;50.940;4.034;2023-02-27T16:40:38;4.97;;;1.80;;
52266;SDS011;38223;50.940;4.034;2023-02-27T16:43:06;3.22;;;1.50;;
52266;SDS011;38223;50.940;4.034;2023-02-27T16:45:33;5.00;;;1.65;;
52266;SDS011;38223;50.940;4.034;2023-02-27T16:48:01;1.87;;;1.57;;
52266;SDS011;38223;50.940;4.034;2023-02-27T16:50:41;1.98;;;1.37;;
52266;SDS011;38223;50.940;4.034;2023-02-27T16:53:12;1.90;;;1.37;;
52266;SDS011;38223;50.940;4.034;2023-02-27T16:55:41;4.58;;;1.47;;
52266;SDS011;38223;50.940;4.034;2023-02-27T16:58:15;3.80;;;1.47;;
52266;SDS011;38223;50.940;4.034;2023-02-27T17:00:46;3.62;;;1.52;;
52266;SDS011;38223;50.940;4.034;2023-02-27T17:03:18;4.28;;;1.50;;
52266;SDS011;38223;50.940;4.034;2023-02-27T17:05:52;4.78;;;1.57;;
52266;SDS011;38223;50.940;4.034;2023-02-27T17:08:25;2.33;;;1.40;;
52266;SDS011;38223;50.940;4.034;2023-02-27T17:10:54;4.60;;;1.30;;
52266;SDS011;38223;50.940;4.034;2023-02-27T17:15:55;2.95;;;1.30;;
52266;SDS011;38223;50.940;4.034;2023-02-27T17:18:25;1.90;;;1.27;;
52266;SDS011;38223;50.940;4.034;2023-02-27T17:21:02;3.65;;;1.95;;
52266;SDS011;38223;50.940;4.034;2023-02-27T17:23:35;2.80;;;1.40;;
52266;SDS011;38223;50.940;4.034;2023-02-27T17:26:07;2.08;;;1.47;;
52266;SDS011;38223;50.940;4.034;2023-02-27T17:28:37;6.80;;;1.67;;
52266;SDS011;38223;50.940;4.034;2023-02-27T17:31:08;2.37;;;1.80;;
52266;SDS011;38223;50.940;4.034;2023-02-27T17:33:37;4.35;;;1.80;;
52266;SDS011;38223;50.940;4.034;2023-02-27T17:36:09;2.45;;;1.50;;
52266;SDS011;38223;50.940;4.034;2023-02-27T17:38:38;5.25;;;1.40;;
52266;SDS011;38223;50.940;4.034;2023-02-27T17:41:07;3.42;;;1.62;;
52266;SDS011;38223;50.940;4.034;2023-02-27T17:43:36;4.40;;;1.50;;
52266;SDS011;38223;50.940;4.034;2023-02-27T17:46:09;3.80;;;2.27;;
52266;SDS011;38223;50.940;4.034;2023-02-27T17:48:41;3.05;;;1.62;;
52266;SDS011;38223;50.940;4.034;2023-02-27T17:51:32;4.83;;;2.08;;
52266;SDS011;38223;50.940;4.034;2023-02-27T17:54:01;3.62;;;2.00;;
52266;SDS011;38223;50.940;4.034;2023-02-27T17:56:31;3.35;;;2.20;;
52266;SDS011;38223;50.940;4.034;2023-02-27T17:59:01;4.87;;;2.35;;
52266;SDS011;38223;50.940;4.034;2023-02-27T18:01:34;3.20;;;2.13;;
52266;SDS011;38223;50.940;4.034;2023-02-27T18:04:08;2.98;;;2.37;;
52266;SDS011;38223;50.940;4.034;2023-02-27T18:09:13;4.95;;;2.10;;
52266;SDS011;38223;50.940;4.034;2023-02-27T18:11:43;3.42;;;2.05;;
52266;SDS011;38223;50.940;4.034;2023-02-27T18:14:10;4.17;;;2.58;;